createdAt,value
2022-12-24T00:00:20.419Z,99.98
2022-12-24T00:02:51.076Z,100.00
2022-12-24T00:05:21.885Z,100.00
2022-12-24T00:07:52.491Z,100.00
2022-12-24T00:10:23.105Z,100.00
2022-12-24T00:12:53.660Z,100.00
2022-12-24T00:15:24.295Z,100.00
2022-12-24T00:17:54.817Z,100.00
2022-12-24T00:20:25.299Z,100.00
2022-12-24T00:22:55.736Z,100.00
2022-12-24T00:25:26.163Z,100.00
2022-12-24T00:27:56.655Z,100.00
2022-12-24T00:30:28.570Z,100.00
2022-12-24T00:32:59.076Z,100.00
2022-12-24T00:35:29.556Z,100.00
2022-12-24T00:37:59.992Z,100.00
2022-12-24T00:40:30.847Z,100.00
2022-12-24T00:43:01.291Z,100.00
2022-12-24T00:45:31.766Z,100.00
2022-12-24T00:48:02.186Z,100.00
2022-12-24T00:50:32.581Z,100.00
2022-12-24T00:53:03.143Z,100.00
2022-12-24T00:55:33.587Z,100.00
2022-12-24T00:58:04.067Z,98.84
2022-12-24T01:00:34.497Z,98.20
2022-12-24T01:03:04.964Z,95.85
2022-12-24T01:05:35.485Z,95.25
2022-12-24T01:08:06.354Z,95.17
2022-12-24T01:10:36.953Z,94.06
2022-12-24T01:13:07.423Z,94.41
2022-12-24T01:15:39.480Z,94.19
2022-12-24T01:18:09.983Z,92.75
2022-12-24T01:20:40.601Z,91.04
2022-12-24T01:23:11.200Z,92.16
2022-12-24T01:25:41.589Z,92.08
2022-12-24T01:28:12.123Z,90.70
2022-12-24T01:30:43.648Z,91.41
2022-12-24T01:33:14.120Z,90.70
2022-12-24T01:35:45.451Z,89.66
2022-12-24T01:38:16.816Z,88.79
2022-12-24T01:41:03.067Z,88.30
2022-12-24T01:43:34.810Z,88.82
2022-12-24T01:46:08.661Z,89.20
2022-12-24T01:48:43.704Z,90.01
2022-12-24T01:51:24.159Z,87.34
2022-12-24T01:53:58.999Z,89.55
2022-12-24T01:56:31.720Z,89.96
2022-12-24T01:59:11.469Z,90.57
2022-12-24T02:01:42.414Z,91.20
2022-12-24T02:04:20.716Z,91.68
2022-12-24T02:06:51.162Z,92.32
2022-12-24T02:09:21.624Z,92.53
2022-12-24T02:11:55.621Z,92.97
2022-12-24T02:14:27.444Z,93.07
2022-12-24T02:17:07.867Z,93.51
2022-12-24T02:20:02.587Z,93.52
2022-12-24T02:22:45.106Z,93.73
2022-12-24T02:25:43.639Z,93.82
2022-12-24T02:28:26.964Z,93.50
2022-12-24T02:31:02.858Z,93.62
2022-12-24T02:33:37.364Z,94.06
2022-12-24T02:36:14.414Z,94.43
2022-12-24T02:38:50.091Z,94.47
2022-12-24T02:41:24.622Z,94.57
2022-12-24T02:43:58.395Z,94.15
2022-12-24T02:46:31.554Z,93.88
2022-12-24T02:49:02.312Z,93.72
2022-12-24T02:51:32.754Z,93.32
2022-12-24T02:54:03.271Z,93.07
2022-12-24T02:56:46.696Z,93.73
2022-12-24T02:59:36.743Z,93.70
2022-12-24T03:02:20.530Z,93.85
2022-12-24T03:04:58.359Z,93.83
2022-12-24T03:07:36.431Z,94.21
2022-12-24T03:10:21.522Z,93.86
2022-12-24T03:12:55.278Z,93.13
2022-12-24T03:15:28.643Z,92.92
2022-12-24T03:18:02.003Z,92.30
2022-12-24T03:20:38.192Z,91.80
2022-12-24T03:23:08.821Z,91.27
2022-12-24T03:25:43.485Z,91.05
2022-12-24T03:28:17.234Z,90.86
2022-12-24T03:30:49.676Z,91.01
2022-12-24T03:33:20.701Z,90.29
2022-12-24T03:35:51.287Z,89.70
2022-12-24T03:38:22.027Z,89.86
2022-12-24T03:40:52.680Z,90.38
2022-12-24T03:43:23.286Z,90.73
2022-12-24T03:45:54.049Z,91.02
2022-12-24T03:48:30.803Z,91.35
2022-12-24T03:51:04.019Z,91.40
2022-12-24T03:53:34.434Z,91.50
2022-12-24T03:56:05.013Z,91.99
2022-12-24T03:58:35.460Z,92.10
2022-12-24T04:01:06.183Z,92.37
2022-12-24T04:03:36.840Z,92.42
2022-12-24T04:06:10.078Z,92.74
2022-12-24T04:08:41.715Z,92.88
2022-12-24T04:11:14.102Z,93.30
2022-12-24T04:13:45.007Z,93.63
2022-12-24T04:16:17.472Z,93.77
2022-12-24T04:18:48.018Z,94.38
2022-12-24T04:21:18.436Z,94.53
2022-12-24T04:23:49.053Z,95.08
2022-12-24T04:26:19.481Z,95.69
2022-12-24T04:28:50.077Z,95.95
2022-12-24T04:31:20.607Z,96.24
2022-12-24T04:33:53.690Z,96.69
2022-12-24T04:36:25.233Z,96.97
2022-12-24T04:38:55.710Z,96.89
2022-12-24T04:41:26.707Z,97.19
2022-12-24T04:43:57.215Z,97.33
2022-12-24T04:46:30.966Z,97.10
2022-12-24T04:49:01.993Z,97.03
2022-12-24T04:51:32.427Z,97.26
2022-12-24T04:54:02.888Z,97.23
2022-12-24T04:56:34.402Z,97.63
2022-12-24T04:59:04.849Z,97.63
2022-12-24T05:01:36.225Z,98.10
2022-12-24T05:04:06.993Z,98.21
2022-12-24T05:06:37.439Z,98.62
2022-12-24T05:09:07.935Z,98.71
2022-12-24T05:11:41.246Z,98.94
2022-12-24T05:14:11.792Z,99.40
2022-12-24T05:16:44.041Z,99.65
2022-12-24T05:19:14.632Z,99.90
2022-12-24T05:22:05.312Z,100.00
2022-12-24T05:24:53.294Z,100.00
2022-12-24T05:27:23.740Z,100.00
2022-12-24T05:29:54.083Z,100.00
2022-12-24T05:32:24.739Z,100.00
2022-12-24T05:34:55.363Z,100.00
2022-12-24T05:37:25.959Z,100.00
2022-12-24T05:39:56.469Z,100.00
2022-12-24T05:42:26.949Z,100.00
2022-12-24T05:44:57.417Z,100.00
2022-12-24T05:47:28.060Z,100.00
2022-12-24T05:49:58.499Z,100.00
2022-12-24T05:52:29.012Z,100.00
2022-12-24T05:54:59.593Z,100.00
2022-12-24T05:57:30.014Z,100.00
2022-12-24T06:00:00.486Z,100.00
2022-12-24T06:02:31.039Z,100.00
2022-12-24T06:05:01.650Z,100.00
2022-12-24T06:07:32.161Z,100.00
2022-12-24T06:10:02.556Z,100.00
2022-12-24T06:12:32.982Z,100.00
2022-12-24T06:15:03.471Z,100.00
2022-12-24T06:17:33.992Z,100.00
2022-12-24T06:20:05.233Z,100.00
2022-12-24T06:22:35.801Z,100.00
2022-12-24T06:25:06.996Z,100.00
2022-12-24T06:27:37.795Z,100.00
2022-12-24T06:30:10.349Z,100.00
2022-12-24T06:32:40.835Z,100.00
2022-12-24T06:35:12.307Z,100.00
2022-12-24T06:37:42.863Z,100.00
2022-12-24T06:40:13.863Z,100.00
2022-12-24T06:42:44.397Z,100.00
2022-12-24T06:45:15.036Z,100.00
2022-12-24T06:47:45.584Z,100.00
2022-12-24T06:50:16.071Z,100.00
2022-12-24T06:52:47.301Z,100.00
2022-12-24T06:55:17.841Z,100.00
2022-12-24T06:58:34.978Z,100.00
2022-12-24T07:01:06.532Z,100.00
2022-12-24T07:03:37.852Z,100.00
2022-12-24T07:06:12.246Z,100.00
2022-12-24T07:08:42.700Z,100.00
2022-12-24T07:11:13.133Z,100.00
2022-12-24T07:13:43.602Z,100.00
2022-12-24T07:16:14.357Z,100.00
2022-12-24T07:18:45.015Z,100.00
2022-12-24T07:21:15.727Z,100.00
2022-12-24T07:23:46.156Z,100.00
2022-12-24T07:26:16.655Z,100.00
2022-12-24T07:28:47.000Z,100.00
2022-12-24T07:31:17.595Z,100.00
2022-12-24T07:33:48.195Z,100.00
2022-12-24T07:36:22.372Z,100.00
2022-12-24T07:38:53.643Z,100.00
2022-12-24T07:41:24.116Z,100.00
2022-12-24T07:43:54.623Z,100.00
2022-12-24T07:46:25.198Z,100.00
2022-12-24T07:48:55.638Z,100.00
2022-12-24T07:51:26.094Z,100.00
2022-12-24T07:53:56.567Z,100.00
2022-12-24T07:56:27.054Z,100.00
2022-12-24T07:58:57.700Z,100.00
2022-12-24T08:01:28.418Z,100.00
2022-12-24T08:03:58.992Z,100.00
2022-12-24T08:06:29.448Z,100.00
2022-12-24T08:08:59.982Z,100.00
2022-12-24T08:11:30.644Z,100.00
2022-12-24T08:14:01.171Z,100.00
2022-12-24T08:16:31.804Z,100.00
2022-12-24T08:19:02.421Z,100.00
2022-12-24T08:21:32.910Z,100.00
2022-12-24T08:24:03.332Z,100.00
2022-12-24T08:26:33.936Z,100.00
2022-12-24T08:29:04.835Z,100.00
2022-12-24T08:31:36.962Z,99.97
2022-12-24T08:34:09.033Z,100.00
2022-12-24T08:36:39.725Z,100.00
2022-12-24T08:39:11.139Z,100.00
2022-12-24T08:41:39.979Z,100.00
2022-12-24T08:44:10.445Z,100.00
2022-12-24T08:46:40.927Z,100.00
2022-12-24T08:49:11.424Z,100.00
2022-12-24T08:51:41.930Z,100.00
2022-12-24T08:54:12.380Z,99.81
2022-12-24T08:56:42.865Z,99.48
2022-12-24T08:59:14.249Z,99.38
2022-12-24T09:01:43.411Z,99.19
2022-12-24T09:04:14.125Z,98.32
2022-12-24T09:06:44.464Z,97.73
2022-12-24T09:09:15.044Z,98.11
2022-12-24T09:11:45.922Z,97.50
2022-12-24T09:14:16.347Z,97.38
2022-12-24T09:16:46.797Z,95.69
2022-12-24T09:19:17.235Z,95.82
2022-12-24T09:21:47.695Z,95.35
2022-12-24T09:24:18.191Z,94.78
2022-12-24T09:26:55.681Z,94.59
2022-12-24T09:29:28.224Z,93.62
2022-12-24T09:31:58.974Z,93.46
2022-12-24T09:34:30.501Z,92.85
2022-12-24T09:37:03.103Z,93.35
2022-12-24T09:39:33.686Z,93.30
2022-12-24T09:42:12.780Z,92.92
2022-12-24T09:44:48.345Z,93.21
2022-12-24T09:47:28.508Z,93.53
2022-12-24T09:50:02.132Z,92.82
2022-12-24T09:52:37.611Z,92.63
2022-12-24T09:55:16.899Z,92.64
2022-12-24T09:57:50.645Z,92.92
2022-12-24T10:00:25.531Z,93.05
2022-12-24T10:02:56.232Z,93.69
2022-12-24T10:05:38.525Z,93.33
2022-12-24T10:08:21.515Z,93.16
2022-12-24T10:10:55.626Z,93.14
2022-12-24T10:13:38.177Z,92.62
2022-12-24T10:16:19.411Z,93.30
2022-12-24T10:18:57.817Z,92.90
2022-12-24T10:21:36.797Z,92.65
2022-12-24T10:24:14.059Z,91.88
2022-12-24T10:26:47.779Z,91.48
2022-12-24T10:29:21.931Z,91.39
2022-12-24T10:31:59.362Z,91.11
2022-12-24T10:34:34.903Z,91.29
2022-12-24T10:37:05.955Z,90.61
2022-12-24T10:39:36.472Z,90.09
2022-12-24T10:42:08.532Z,89.46
2022-12-24T10:44:39.004Z,89.45
2022-12-24T10:47:11.639Z,89.55
2022-12-24T10:49:46.959Z,89.85
2022-12-24T10:52:21.350Z,90.07
2022-12-24T10:55:21.924Z,90.50
2022-12-24T10:58:02.234Z,91.08
2022-12-24T11:00:36.506Z,91.03
2022-12-24T11:03:29.815Z,90.57
2022-12-24T11:06:06.826Z,91.19
2022-12-24T11:08:38.746Z,90.57
2022-12-24T11:11:13.326Z,89.73
2022-12-24T11:13:47.436Z,89.63
2022-12-24T11:16:23.950Z,88.35
2022-12-24T11:18:57.345Z,88.48
2022-12-24T11:21:30.427Z,88.82
2022-12-24T11:24:08.808Z,88.65
2022-12-24T11:26:39.839Z,88.97
2022-12-24T11:29:16.783Z,88.45
2022-12-24T11:31:48.558Z,88.30
2022-12-24T11:34:33.692Z,88.21
2022-12-24T11:37:16.051Z,88.41
2022-12-24T11:39:51.643Z,87.91
2022-12-24T11:42:35.346Z,87.56
2022-12-24T11:45:22.493Z,88.23
2022-12-24T11:47:53.587Z,88.71
2022-12-24T11:50:29.798Z,89.07
2022-12-24T11:53:06.640Z,89.28
2022-12-24T11:55:45.620Z,89.85
2022-12-24T11:58:25.306Z,90.23
2022-12-24T12:01:03.866Z,91.16
2022-12-24T12:03:39.665Z,91.86
2022-12-24T12:06:27.364Z,92.46
2022-12-24T12:09:02.702Z,92.19
2022-12-24T12:11:34.991Z,91.49
2022-12-24T12:14:07.232Z,89.96
2022-12-24T12:17:00.814Z,90.48
2022-12-24T12:19:39.682Z,89.81
2022-12-24T12:22:22.981Z,89.80
2022-12-24T12:24:58.288Z,89.41
2022-12-24T12:27:33.200Z,89.74
2022-12-24T12:30:06.237Z,89.48
2022-12-24T12:32:49.305Z,89.50
2022-12-24T12:35:26.780Z,89.44
2022-12-24T12:38:01.643Z,89.29
2022-12-24T12:40:47.973Z,88.56
2022-12-24T12:43:36.690Z,88.45
2022-12-24T12:46:18.400Z,89.03
2022-12-24T12:49:10.021Z,89.62
2022-12-24T12:51:42.781Z,89.80
2022-12-24T12:54:44.955Z,89.27
2022-12-24T12:57:21.132Z,89.66
2022-12-24T12:59:56.875Z,89.48
2022-12-24T13:02:55.276Z,89.39
2022-12-24T13:05:50.630Z,89.21
2022-12-24T13:09:17.973Z,89.59
2022-12-24T13:12:04.989Z,89.48
2022-12-24T13:14:59.206Z,89.17
2022-12-24T13:17:48.301Z,89.92
2022-12-24T13:20:25.603Z,89.90
2022-12-24T13:23:01.723Z,89.99
2022-12-24T13:25:39.877Z,89.39
2022-12-24T13:28:34.256Z,89.46
2022-12-24T13:31:28.113Z,89.13
2022-12-24T13:34:03.649Z,89.24
2022-12-24T13:37:03.838Z,89.67
2022-12-24T13:40:03.911Z,90.18
2022-12-24T13:42:52.082Z,90.66
2022-12-24T13:45:48.280Z,91.17
2022-12-24T13:48:36.080Z,91.48
2022-12-24T13:51:25.864Z,92.16
2022-12-24T13:54:01.205Z,92.90
2022-12-24T13:56:33.120Z,92.92
2022-12-24T13:59:23.425Z,92.80
2022-12-24T14:01:59.200Z,92.66
2022-12-24T14:04:34.072Z,93.07
2022-12-24T14:07:06.365Z,93.67
2022-12-24T14:09:37.148Z,94.15
2022-12-24T14:12:35.025Z,94.79
2022-12-24T14:15:36.511Z,95.31
2022-12-24T14:18:07.548Z,96.39
2022-12-24T14:20:39.466Z,96.77
2022-12-24T14:23:23.194Z,98.54
2022-12-24T14:25:53.957Z,99.65
2022-12-24T14:28:30.470Z,100.00
2022-12-24T14:31:04.739Z,100.00
2022-12-24T14:33:36.318Z,100.00
2022-12-24T14:36:07.271Z,100.00
2022-12-24T14:38:38.366Z,100.00
2022-12-24T14:41:16.314Z,100.00
2022-12-24T14:44:01.510Z,100.00
2022-12-24T14:46:39.335Z,100.00
2022-12-24T14:49:20.581Z,100.00
2022-12-24T14:52:00.899Z,100.00
2022-12-24T14:54:41.499Z,100.00
2022-12-24T14:57:20.691Z,100.00
2022-12-24T14:59:53.644Z,100.00
2022-12-24T15:02:44.158Z,100.00
2022-12-24T15:05:18.799Z,100.00
2022-12-24T15:07:56.104Z,100.00
2022-12-24T15:10:30.537Z,100.00
2022-12-24T15:13:06.477Z,100.00
2022-12-24T15:15:37.423Z,100.00
2022-12-24T15:18:15.444Z,100.00
2022-12-24T15:20:50.531Z,100.00
2022-12-24T15:23:27.010Z,100.00
2022-12-24T15:26:17.102Z,100.00
2022-12-24T15:28:47.793Z,100.00
2022-12-24T15:31:21.189Z,100.00
2022-12-24T15:33:53.838Z,100.00
2022-12-24T15:36:31.309Z,100.00
2022-12-24T15:39:05.299Z,100.00
2022-12-24T15:42:01.088Z,100.00
2022-12-24T15:44:36.936Z,100.00
2022-12-24T15:47:15.040Z,100.00
2022-12-24T15:49:49.148Z,100.00
2022-12-24T15:52:24.296Z,100.00
2022-12-24T15:54:58.152Z,100.00
2022-12-24T15:57:33.845Z,100.00
2022-12-24T16:00:23.615Z,100.00
2022-12-24T16:02:54.841Z,100.00
2022-12-24T16:05:31.575Z,100.00
2022-12-24T16:08:26.255Z,100.00
2022-12-24T16:11:19.119Z,100.00
2022-12-24T16:14:19.609Z,100.00
2022-12-24T16:16:54.564Z,100.00
2022-12-24T16:19:27.790Z,100.00
2022-12-24T16:22:21.655Z,100.00
2022-12-24T16:24:52.816Z,100.00
2022-12-24T16:27:23.195Z,100.00
2022-12-24T16:29:53.838Z,100.00
2022-12-24T16:32:33.364Z,100.00
2022-12-24T16:35:05.377Z,100.00
2022-12-24T16:37:35.888Z,100.00
2022-12-24T16:40:11.339Z,100.00
2022-12-24T16:43:02.483Z,100.00
2022-12-24T16:45:36.194Z,100.00
2022-12-24T16:48:09.476Z,100.00
2022-12-24T16:50:40.437Z,100.00
2022-12-24T16:53:17.517Z,100.00
2022-12-24T16:55:52.072Z,100.00
2022-12-24T16:58:22.983Z,100.00
2022-12-24T17:00:53.524Z,100.00
2022-12-24T17:03:24.079Z,100.00
2022-12-24T17:05:54.678Z,100.00
2022-12-24T17:08:25.080Z,100.00
2022-12-24T17:10:55.458Z,100.00
2022-12-24T17:13:26.175Z,100.00
2022-12-24T17:15:56.715Z,100.00
2022-12-24T17:18:27.211Z,100.00
2022-12-24T17:21:04.027Z,100.00
2022-12-24T17:23:34.477Z,100.00
2022-12-24T17:26:12.487Z,100.00
2022-12-24T17:28:44.433Z,100.00
2022-12-24T17:31:17.996Z,100.00
2022-12-24T17:33:49.266Z,100.00
2022-12-24T17:36:20.055Z,100.00
2022-12-24T17:38:50.622Z,100.00
2022-12-24T17:41:22.370Z,100.00
2022-12-24T17:43:52.699Z,100.00
2022-12-24T17:46:24.589Z,100.00
2022-12-24T17:48:56.285Z,100.00
2022-12-24T17:51:28.788Z,100.00
2022-12-24T17:53:59.318Z,100.00
2022-12-24T17:56:30.448Z,100.00
2022-12-24T17:59:00.862Z,100.00
2022-12-24T18:01:33.336Z,100.00
2022-12-24T18:04:04.762Z,100.00
2022-12-24T18:06:35.564Z,100.00
2022-12-24T18:09:05.971Z,100.00
2022-12-24T18:11:38.068Z,100.00
2022-12-24T18:14:09.151Z,100.00
2022-12-24T18:16:41.267Z,100.00
2022-12-24T18:19:13.849Z,100.00
2022-12-24T18:21:44.339Z,100.00
2022-12-24T18:24:15.368Z,100.00
2022-12-24T18:26:46.536Z,100.00
2022-12-24T18:29:17.722Z,100.00
2022-12-24T18:31:48.274Z,100.00
2022-12-24T18:34:18.694Z,100.00
2022-12-24T18:36:54.757Z,100.00
2022-12-24T18:39:26.112Z,100.00
2022-12-24T18:41:56.604Z,100.00
2022-12-24T18:44:27.062Z,100.00
2022-12-24T18:46:57.644Z,100.00
2022-12-24T18:49:28.230Z,100.00
2022-12-24T18:51:58.812Z,100.00
2022-12-24T18:54:29.316Z,100.00
2022-12-24T18:56:59.898Z,100.00
2022-12-24T18:59:30.589Z,100.00
2022-12-24T19:02:01.372Z,100.00
2022-12-24T19:04:31.899Z,100.00
2022-12-24T19:07:02.577Z,100.00
2022-12-24T19:09:32.894Z,100.00
2022-12-24T19:12:04.349Z,100.00
2022-12-24T19:14:35.075Z,100.00
2022-12-24T19:17:05.447Z,100.00
2022-12-24T19:19:35.884Z,100.00
2022-12-24T19:22:06.372Z,100.00
2022-12-24T19:24:36.911Z,100.00
2022-12-24T19:27:07.301Z,100.00
2022-12-24T19:29:37.711Z,100.00
2022-12-24T19:32:08.396Z,100.00
2022-12-24T19:34:38.991Z,100.00
2022-12-24T19:37:09.730Z,100.00
2022-12-24T19:39:40.209Z,100.00
2022-12-24T19:42:10.606Z,100.00
2022-12-24T19:44:40.931Z,100.00
2022-12-24T19:47:11.419Z,100.00
2022-12-24T19:49:42.048Z,100.00
2022-12-24T19:52:12.427Z,100.00
2022-12-24T19:54:43.901Z,100.00
2022-12-24T19:57:14.353Z,100.00
2022-12-24T19:59:44.817Z,100.00
2022-12-24T20:02:15.506Z,100.00
2022-12-24T20:04:46.439Z,100.00
2022-12-24T20:07:16.876Z,100.00
2022-12-24T20:09:47.614Z,100.00
2022-12-24T20:12:18.365Z,100.00
2022-12-24T20:14:48.799Z,100.00
2022-12-24T20:17:20.068Z,100.00
2022-12-24T20:19:50.655Z,100.00
2022-12-24T20:22:21.138Z,100.00
2022-12-24T20:24:51.835Z,100.00
2022-12-24T20:27:24.243Z,100.00
2022-12-24T20:29:54.745Z,100.00
2022-12-24T20:32:25.301Z,100.00
2022-12-24T20:34:55.843Z,100.00
2022-12-24T20:37:26.330Z,100.00
2022-12-24T20:39:56.758Z,100.00
2022-12-24T20:42:27.455Z,100.00
2022-12-24T20:44:57.945Z,100.00
2022-12-24T20:47:28.409Z,100.00
2022-12-24T20:49:59.514Z,100.00
2022-12-24T20:52:30.222Z,100.00
2022-12-24T20:55:00.957Z,100.00
2022-12-24T20:57:36.485Z,100.00
2022-12-24T21:00:09.456Z,100.00
2022-12-24T21:02:39.997Z,100.00
2022-12-24T21:05:12.927Z,100.00
2022-12-24T21:07:43.713Z,100.00
2022-12-24T21:10:15.620Z,100.00
2022-12-24T21:12:57.140Z,100.00
2022-12-24T21:15:27.385Z,100.00
2022-12-24T21:17:59.629Z,100.00
2022-12-24T21:20:33.984Z,100.00
2022-12-24T21:23:04.824Z,100.00
2022-12-24T21:25:35.754Z,100.00
2022-12-24T21:28:06.342Z,100.00
2022-12-24T21:30:36.761Z,100.00
2022-12-24T21:33:07.227Z,100.00
2022-12-24T21:35:37.631Z,100.00
2022-12-24T21:38:08.174Z,100.00
2022-12-24T21:40:39.330Z,100.00
2022-12-24T21:43:09.779Z,100.00
2022-12-24T21:45:42.371Z,100.00
2022-12-24T21:48:26.683Z,100.00
2022-12-24T21:50:58.171Z,100.00
2022-12-24T21:53:46.515Z,100.00
2022-12-24T21:56:17.138Z,100.00
2022-12-24T21:58:49.674Z,100.00
2022-12-24T22:01:20.784Z,100.00
2022-12-24T22:03:51.651Z,100.00
2022-12-24T22:06:40.077Z,100.00
2022-12-24T22:09:30.848Z,100.00
2022-12-24T22:12:01.434Z,100.00
2022-12-24T22:14:33.026Z,100.00
2022-12-24T22:17:05.273Z,100.00
2022-12-24T22:19:35.765Z,100.00
2022-12-24T22:22:06.283Z,100.00
2022-12-24T22:24:36.767Z,100.00
2022-12-24T22:27:07.254Z,100.00
2022-12-24T22:29:37.875Z,100.00
2022-12-24T22:32:08.646Z,100.00
2022-12-24T22:34:39.180Z,100.00
2022-12-24T22:37:09.757Z,100.00
2022-12-24T22:39:40.141Z,100.00
2022-12-24T22:42:10.618Z,100.00
2022-12-24T22:44:40.998Z,100.00
2022-12-24T22:47:11.356Z,100.00
2022-12-24T22:49:41.775Z,100.00
2022-12-24T22:52:12.877Z,100.00
2022-12-24T22:54:43.327Z,100.00
2022-12-24T22:57:13.763Z,100.00
2022-12-24T22:59:44.494Z,100.00
2022-12-24T23:02:15.117Z,100.00
2022-12-24T23:04:45.953Z,100.00
2022-12-24T23:07:16.458Z,100.00
2022-12-24T23:09:46.834Z,100.00
2022-12-24T23:12:37.719Z,100.00
2022-12-24T23:15:09.837Z,100.00
2022-12-24T23:17:40.381Z,100.00
2022-12-24T23:20:12.331Z,100.00
2022-12-24T23:22:42.824Z,100.00
2022-12-24T23:25:13.597Z,100.00
2022-12-24T23:27:44.252Z,100.00
2022-12-24T23:30:15.309Z,100.00
2022-12-24T23:32:45.781Z,100.00
2022-12-24T23:35:16.382Z,100.00
2022-12-24T23:37:46.853Z,100.00
2022-12-24T23:40:17.583Z,100.00
2022-12-24T23:42:48.074Z,100.00
2022-12-24T23:45:18.646Z,100.00
2022-12-24T23:47:49.141Z,100.00
2022-12-24T23:50:19.569Z,100.00
2022-12-24T23:52:50.027Z,100.00
2022-12-24T23:55:20.633Z,100.00
2022-12-24T23:57:51.163Z,100.00
